Página principal
METAR-TAF:

METAR-TAF

Aeroportos :

Aeroporto Internacional Diori Hamani

Niamey, Níger

latitude: 13-29N, longitude: 002-10E, altura: 223 m

Observação actual do tempo

O boletim foi feito há 58 minutos, às 15:00 UTC
Vento 9 kt de es-nordeste
Temperatura 38°C
Humidade 6%
Pressão 1010 hPa
Visibilidade 10 km ou mais
sem nuvens abaixo de 1500 metros e sem cumulonimbus

METAR: DRRN 211500Z 07009KT CAVOK 38/M06 Q1010 NOSIG

Hora: 16:58 (15:58 UTC)

Previsão

O boletim foi feito há 4 horas e 58 minutos, às 11:00 UTC
Previsão válida de 21 às 12 UTC a 22 às 18 UTC
Vento 8 kt de este
Visibilidade: 8000 m
Temporariamente
de 21 às 17 UTC a 21 às 20 UTC
Visibilidade: 4000 m
poeira extensa
Temporariamente
de 22 às 06 UTC a 22 às 09 UTC
Visibilidade: 4500 m
poeira extensa

TAF: DRRN 211100Z 2112/2218 08008KT 8000 NSC TEMPO 2117/2120 4000 DU TEMPO 2206/2209 4500 DU

Observações e previsões do tempo de mais de 4000 aeroportos (mensagens METAR e TAF).

As estações disponíveis são os pontos amarelos e vermelhos sobre o mapa.

Mova o rato sobre o mapa para ver o nome da estação.

Depois clique no ponto para visualizar as observações e previsões meteorológicas.

Para alterar o mapa : clique nos botões verdes com uma cruz preta para aumentar o zoom; no botão verde com uma pitada de zoom; ou nas setas verdes para mapas adjacentes.


METAR-TAF: